Fairchild Air Force Base, Washington
Current Conditions -  °F | °C
As of 1:58 AM on Thursday 27 Nov 2014 (Local Time) from KSKA Reporting Station
Overcast Overcast  
Wind Chill: 40°   Ceiling: 9000
Heat Index: 47°   Visibility: 10mi
Dew Point: 41°   Wind: 17mph
Humidity: 79%   Direction: 180°S
Pressure: 29.9"   Gusts: NA
Location:  47.6332°N, 117.6546°W
Report Text: KSKA 270958Z AUTO 18015KT 10SM OVC090 08/05 A2990 RMK AO2 UPB0912E0926RAB0926E0937 SLP136 P0000 T00840050
Loading
Personal Weather Stations






























Interactive Weather Map New forecast layout! Learn more

10-Day Weather Forecast

Advertisements
Track Severe Weather on mobile